createdAt,value
2023-04-25T00:02:01.004Z,5.79
2023-04-25T00:04:07.748Z,5.78
2023-04-25T00:06:12.994Z,5.72
2023-04-25T00:08:20.727Z,5.64
2023-04-25T00:10:26.138Z,5.59
2023-04-25T00:12:31.270Z,5.52
2023-04-25T00:14:39.276Z,5.46
2023-04-25T00:16:45.426Z,5.40
2023-04-25T00:18:52.649Z,5.37
2023-04-25T00:20:57.920Z,5.34
2023-04-25T00:23:03.018Z,5.33
2023-04-25T00:25:11.715Z,5.33
2023-04-25T00:27:18.308Z,5.28
2023-04-25T00:29:23.324Z,5.18
2023-04-25T00:31:28.698Z,5.17
2023-04-25T00:33:33.620Z,5.16
2023-04-25T00:35:38.883Z,5.10
2023-04-25T00:37:43.959Z,5.07
2023-04-25T00:39:48.970Z,5.01
2023-04-25T00:41:58.123Z,4.97
2023-04-25T00:44:05.396Z,4.91
2023-04-25T00:46:10.353Z,4.90
2023-04-25T00:48:20.880Z,4.94
2023-04-25T00:50:33.998Z,4.98
2023-04-25T00:52:51.026Z,4.96
2023-04-25T00:55:02.124Z,4.94
2023-04-25T00:57:13.297Z,4.95
2023-04-25T00:59:29.729Z,4.97
2023-04-25T01:01:38.822Z,5.00
2023-04-25T01:03:44.913Z,5.03
2023-04-25T01:05:54.854Z,5.12
2023-04-25T01:08:04.538Z,5.12
2023-04-25T01:10:24.465Z,5.13
2023-04-25T01:12:39.196Z,5.18
2023-04-25T01:14:48.768Z,5.13
2023-04-25T01:17:02.215Z,5.17
2023-04-25T01:19:13.682Z,5.12
2023-04-25T01:21:32.208Z,5.11
2023-04-25T01:23:39.527Z,5.03
2023-04-25T01:25:44.846Z,5.02
2023-04-25T01:27:50.344Z,5.05
2023-04-25T01:29:55.720Z,5.00
2023-04-25T01:32:02.242Z,4.95
2023-04-25T01:34:07.366Z,4.99
2023-04-25T01:36:13.031Z,5.00
2023-04-25T01:38:20.592Z,4.98
2023-04-25T01:40:26.273Z,4.96
2023-04-25T01:42:31.543Z,4.97
2023-04-25T01:44:36.683Z,4.98
2023-04-25T01:46:41.730Z,4.91
2023-04-25T01:48:46.780Z,4.90
2023-04-25T01:50:52.555Z,4.87
2023-04-25T01:52:58.436Z,4.86
2023-04-25T01:55:07.084Z,4.87
2023-04-25T01:57:11.936Z,4.86
2023-04-25T01:59:16.891Z,4.85
2023-04-25T02:01:24.838Z,4.86
2023-04-25T02:03:31.197Z,4.84
2023-04-25T02:05:39.683Z,4.84
2023-04-25T02:07:44.629Z,4.86
2023-04-25T02:09:49.704Z,4.87
2023-04-25T02:11:57.246Z,4.89
2023-04-25T02:14:03.390Z,4.88
2023-04-25T02:16:09.423Z,4.93
2023-04-25T02:18:14.591Z,4.93
2023-04-25T02:20:21.113Z,4.96
2023-04-25T02:22:25.995Z,5.13
2023-04-25T02:24:31.253Z,5.19
2023-04-25T02:26:37.939Z,5.20
2023-04-25T02:28:45.676Z,5.19
2023-04-25T02:30:50.618Z,5.16
2023-04-25T02:32:55.676Z,5.15
2023-04-25T02:35:04.994Z,5.13
2023-04-25T02:37:09.920Z,5.09
2023-04-25T02:39:14.854Z,5.10
2023-04-25T02:41:19.860Z,5.09
2023-04-25T02:43:24.764Z,5.12
2023-04-25T02:45:32.207Z,5.14
2023-04-25T02:47:38.423Z,5.14
2023-04-25T02:49:43.430Z,5.13
2023-04-25T02:51:50.456Z,5.11
2023-04-25T02:53:56.288Z,5.10
2023-04-25T02:56:06.197Z,5.11
2023-04-25T02:58:14.918Z,5.11
2023-04-25T03:00:25.630Z,5.16
2023-04-25T03:02:36.919Z,5.21
2023-04-25T03:04:42.146Z,5.31
2023-04-25T03:06:47.631Z,5.39
2023-04-25T03:08:54.402Z,5.43
2023-04-25T03:10:59.703Z,5.44
2023-04-25T03:13:04.593Z,5.45
2023-04-25T03:15:12.043Z,5.44
2023-04-25T03:17:18.635Z,5.46
2023-04-25T03:19:26.628Z,5.49
2023-04-25T03:21:33.276Z,5.48
2023-04-25T03:23:39.924Z,5.48
2023-04-25T03:25:47.034Z,5.46
2023-04-25T03:27:54.214Z,5.46
2023-04-25T03:30:03.736Z,5.45
2023-04-25T03:32:09.658Z,5.43
2023-04-25T03:34:15.924Z,5.48
2023-04-25T03:36:25.931Z,5.46
2023-04-25T03:38:33.144Z,5.55
2023-04-25T03:40:38.720Z,5.57
2023-04-25T03:42:45.140Z,5.58
2023-04-25T03:44:51.178Z,5.61
2023-04-25T03:46:59.866Z,5.64
2023-04-25T03:49:06.806Z,5.65
2023-04-25T03:51:12.137Z,5.63
2023-04-25T03:53:24.952Z,5.64
2023-04-25T03:55:31.889Z,5.64
2023-04-25T03:57:39.869Z,5.67
2023-04-25T03:59:48.326Z,5.65
2023-04-25T04:01:55.326Z,5.65
2023-04-25T04:04:01.047Z,5.68
2023-04-25T04:06:13.102Z,5.70
2023-04-25T04:08:27.395Z,5.68
2023-04-25T04:10:36.906Z,5.70
2023-04-25T04:12:48.047Z,5.70
2023-04-25T04:14:55.326Z,5.67
2023-04-25T04:17:02.078Z,5.64
2023-04-25T04:19:13.656Z,5.63
2023-04-25T04:21:29.498Z,5.64
2023-04-25T04:23:40.021Z,5.62
2023-04-25T04:25:51.177Z,5.63
2023-04-25T04:28:15.323Z,5.61
2023-04-25T04:30:28.244Z,5.62
2023-04-25T04:32:41.179Z,5.63
2023-04-25T04:37:20.249Z,5.58
2023-04-25T04:39:31.718Z,5.59
2023-04-25T04:41:48.789Z,5.57
2023-04-25T04:44:02.469Z,5.54
2023-04-25T04:46:07.588Z,5.56
2023-04-25T04:48:15.468Z,5.59
2023-04-25T04:50:21.159Z,5.65
2023-04-25T04:52:26.072Z,5.66
2023-04-25T04:54:33.837Z,5.64
2023-04-25T04:56:38.596Z,5.73
2023-04-25T04:58:43.526Z,5.76
2023-04-25T05:00:50.278Z,5.78
2023-04-25T05:02:55.759Z,5.78
2023-04-25T05:05:00.797Z,5.80
2023-04-25T05:07:05.708Z,5.79
2023-04-25T05:09:10.536Z,5.81
2023-04-25T05:11:19.336Z,5.77
2023-04-25T05:13:24.550Z,5.80
2023-04-25T05:15:29.529Z,5.79
2023-04-25T05:17:34.411Z,5.73
2023-04-25T05:19:40.605Z,5.74
2023-04-25T05:21:45.646Z,5.82
2023-04-25T05:23:51.046Z,5.85
2023-04-25T05:25:56.283Z,5.89
2023-04-25T05:28:03.836Z,5.81
2023-04-25T05:30:10.276Z,5.76
2023-04-25T05:32:15.376Z,5.75
2023-04-25T05:34:22.801Z,5.71
2023-04-25T05:36:34.683Z,5.70
2023-04-25T05:38:50.159Z,5.76
2023-04-25T05:40:58.049Z,5.80
2023-04-25T05:43:05.792Z,5.69
2023-04-25T05:45:15.783Z,5.71
2023-04-25T05:47:29.739Z,5.74
2023-04-25T05:49:57.658Z,5.68
2023-04-25T05:55:11.574Z,5.67
2023-04-25T05:57:42.518Z,5.81
2023-04-25T06:05:30.994Z,5.75
2023-04-25T06:08:11.706Z,5.85
2023-04-25T06:10:20.423Z,5.81
2023-04-25T06:12:28.580Z,5.67
2023-04-25T06:14:53.905Z,5.63
2023-04-25T06:17:07.443Z,5.67
2023-04-25T06:19:35.035Z,5.74
2023-04-25T06:21:40.443Z,5.71
2023-04-25T06:23:45.475Z,5.72
2023-04-25T06:25:52.316Z,5.70
2023-04-25T06:27:57.275Z,5.71
2023-04-25T06:30:03.004Z,5.73
2023-04-25T06:32:10.749Z,5.77
2023-04-25T06:34:17.514Z,5.68
2023-04-25T06:36:26.128Z,5.71
2023-04-25T06:38:31.164Z,5.79
2023-04-25T06:40:36.571Z,5.86
2023-04-25T06:42:46.017Z,5.92
2023-04-25T06:44:52.367Z,5.99
2023-04-25T06:46:57.623Z,6.01
2023-04-25T06:51:52.115Z,6.19
2023-04-25T06:54:01.873Z,6.35
2023-04-25T06:56:15.465Z,6.46
2023-04-25T06:58:27.909Z,6.60
2023-04-25T07:00:39.416Z,6.66
2023-04-25T07:02:54.782Z,6.76
2023-04-25T07:05:05.408Z,6.73
2023-04-25T07:07:13.892Z,6.85
2023-04-25T07:09:26.688Z,6.90
2023-04-25T07:11:31.789Z,6.91
2023-04-25T07:13:40.997Z,7.15
2023-04-25T07:15:52.407Z,7.29
2023-04-25T07:18:10.578Z,7.40
2023-04-25T07:20:29.284Z,7.70
2023-04-25T07:22:37.182Z,7.94
2023-04-25T07:24:42.805Z,8.74
2023-04-25T07:26:48.160Z,8.83
2023-04-25T07:28:53.199Z,9.54
2023-04-25T07:30:59.391Z,10.22
2023-04-25T07:33:04.925Z,10.02
2023-04-25T07:35:11.261Z,9.12
2023-04-25T07:37:26.612Z,8.53
2023-04-25T07:39:34.942Z,8.29
2023-04-25T07:41:49.751Z,8.06
2023-04-25T07:43:54.871Z,8.32
2023-04-25T07:46:00.645Z,8.86
2023-04-25T07:48:08.232Z,8.80
2023-04-25T07:50:22.250Z,9.32
2023-04-25T07:52:29.919Z,9.54
2023-04-25T07:54:35.278Z,10.44
2023-04-25T07:56:52.190Z,10.94
2023-04-25T07:59:03.798Z,11.46
2023-04-25T08:01:09.076Z,11.48
2023-04-25T08:03:14.160Z,11.02
2023-04-25T08:05:22.984Z,10.36
2023-04-25T08:07:32.308Z,9.68
2023-04-25T08:09:38.803Z,9.65
2023-04-25T08:11:46.770Z,9.90
2023-04-25T08:13:56.722Z,8.80
2023-04-25T08:16:20.636Z,8.55
2023-04-25T08:18:33.261Z,8.45
2023-04-25T08:20:50.048Z,7.88
2023-04-25T08:23:01.686Z,7.91
2023-04-25T08:25:15.217Z,8.19
2023-04-25T08:27:25.694Z,8.65
2023-04-25T08:29:50.998Z,9.00
2023-04-25T08:31:59.989Z,9.59
2023-04-25T08:34:09.398Z,9.93
2023-04-25T08:36:52.080Z,9.55
2023-04-25T08:39:38.651Z,9.93
2023-04-25T08:42:07.604Z,9.40
2023-04-25T08:44:28.153Z,8.53
2023-04-25T08:46:39.962Z,8.20
2023-04-25T08:48:48.503Z,8.14
2023-04-25T08:50:55.432Z,8.33
2023-04-25T08:53:08.800Z,9.02
2023-04-25T08:55:20.264Z,9.08
2023-04-25T08:57:26.714Z,8.84
2023-04-25T08:59:32.544Z,8.57
2023-04-25T09:01:38.825Z,9.04
2023-04-25T09:03:52.296Z,9.48
2023-04-25T09:05:59.436Z,10.37
2023-04-25T09:08:04.871Z,9.96
2023-04-25T09:10:10.538Z,9.99
2023-04-25T09:12:18.633Z,10.16
2023-04-25T09:14:31.564Z,9.21
2023-04-25T09:16:38.247Z,9.28
2023-04-25T09:18:48.342Z,10.07
2023-04-25T09:21:00.911Z,9.93
2023-04-25T09:23:08.494Z,10.30
2023-04-25T09:25:15.817Z,10.57
2023-04-25T09:27:28.275Z,11.42
2023-04-25T09:29:34.470Z,10.11
2023-04-25T09:31:40.186Z,9.04
2023-04-25T09:33:45.456Z,9.74
2023-04-25T09:35:56.652Z,9.84
2023-04-25T09:38:01.639Z,9.11
2023-04-25T09:40:11.625Z,8.89
2023-04-25T09:42:20.369Z,8.88
2023-04-25T09:44:30.255Z,10.00
2023-04-25T09:46:48.352Z,9.96
2023-04-25T09:48:55.232Z,9.32
2023-04-25T09:51:10.664Z,10.03
2023-04-25T09:53:16.267Z,10.60
2023-04-25T09:55:24.667Z,10.88
2023-04-25T09:57:29.900Z,10.84
2023-04-25T09:59:42.839Z,10.89
2023-04-25T10:01:48.326Z,10.55
2023-04-25T10:03:56.214Z,10.20
2023-04-25T10:06:04.374Z,9.15
2023-04-25T10:08:11.335Z,9.14
2023-04-25T10:10:20.372Z,9.19
2023-04-25T10:12:25.995Z,9.46
2023-04-25T10:14:31.054Z,9.51
2023-04-25T10:16:40.091Z,9.43
2023-04-25T10:18:45.220Z,9.75
2023-04-25T10:20:51.191Z,10.94
2023-04-25T10:22:59.710Z,10.22
2023-04-25T10:25:05.648Z,8.14
2023-04-25T10:27:11.394Z,8.54
2023-04-25T10:29:27.190Z,8.47
2023-04-25T10:31:34.244Z,8.02
2023-04-25T10:33:44.434Z,8.06
2023-04-25T10:35:49.475Z,8.03
2023-04-25T10:38:08.781Z,8.65
2023-04-25T10:40:14.633Z,9.32
2023-04-25T10:42:19.626Z,9.64
2023-04-25T10:44:24.715Z,10.46
2023-04-25T10:46:43.725Z,9.74
2023-04-25T10:48:55.468Z,9.92
2023-04-25T10:51:13.502Z,10.37
2023-04-25T10:53:23.445Z,10.35
2023-04-25T10:55:58.974Z,9.62
2023-04-25T10:58:04.830Z,9.19
2023-04-25T11:00:19.953Z,8.91
2023-04-25T11:02:33.881Z,9.64
2023-04-25T11:04:43.255Z,9.87
2023-04-25T11:07:06.427Z,9.59
2023-04-25T11:09:15.933Z,10.04
2023-04-25T11:11:24.115Z,9.54
2023-04-25T11:13:33.772Z,8.97
2023-04-25T11:15:38.715Z,8.89
2023-04-25T11:17:49.640Z,8.91
2023-04-25T11:19:58.098Z,9.54
2023-04-25T11:22:04.804Z,9.92
2023-04-25T11:24:10.418Z,10.56
2023-04-25T11:26:18.525Z,10.43
2023-04-25T11:28:26.232Z,10.17
2023-04-25T11:30:33.319Z,10.88
2023-04-25T11:32:38.903Z,9.92
2023-04-25T11:34:48.686Z,10.42
2023-04-25T11:36:56.778Z,10.63
2023-04-25T11:39:01.994Z,10.18
2023-04-25T11:41:07.120Z,9.65
2023-04-25T11:43:13.785Z,9.29
2023-04-25T11:45:22.195Z,9.22
2023-04-25T11:47:32.637Z,9.47
2023-04-25T11:49:43.198Z,9.56
2023-04-25T11:51:49.712Z,10.36
2023-04-25T11:53:57.267Z,10.45
2023-04-25T11:56:02.344Z,10.13
2023-04-25T11:58:09.896Z,10.66
2023-04-25T12:00:21.483Z,10.52
2023-04-25T12:02:29.891Z,9.89
2023-04-25T12:04:36.658Z,9.39
2023-04-25T12:06:44.142Z,8.96
2023-04-25T12:09:11.985Z,8.96
2023-04-25T12:11:24.886Z,9.38
2023-04-25T12:13:31.235Z,10.04
2023-04-25T12:15:38.597Z,10.24
2023-04-25T12:17:43.803Z,10.46
2023-04-25T12:19:54.832Z,9.93
2023-04-25T12:21:59.906Z,9.66
2023-04-25T12:24:19.335Z,10.20
2023-04-25T12:26:24.566Z,10.21
2023-04-25T12:28:33.126Z,10.69
2023-04-25T12:30:56.502Z,10.98
2023-04-25T12:33:03.336Z,11.02
2023-04-25T12:35:09.720Z,10.53
2023-04-25T12:37:15.356Z,10.00
2023-04-25T12:39:26.386Z,10.18
2023-04-25T12:41:31.239Z,10.37
2023-04-25T12:43:36.808Z,10.50
2023-04-25T12:45:41.942Z,10.30
2023-04-25T12:47:46.988Z,9.88
2023-04-25T12:49:55.206Z,10.12
2023-04-25T12:52:00.222Z,10.89
2023-04-25T12:54:05.520Z,11.33
2023-04-25T12:56:13.533Z,11.12
2023-04-25T12:58:20.532Z,10.76
2023-04-25T13:00:25.987Z,10.77
2023-04-25T13:02:31.169Z,10.31
2023-04-25T13:04:38.198Z,10.23
2023-04-25T13:06:43.463Z,10.72
2023-04-25T13:08:48.578Z,11.04
2023-04-25T13:10:53.403Z,10.63
2023-04-25T13:13:02.298Z,9.93
2023-04-25T13:15:08.729Z,10.06
2023-04-25T13:17:13.632Z,9.89
2023-04-25T13:19:21.321Z,9.74
2023-04-25T13:21:26.817Z,9.72
2023-04-25T13:23:33.310Z,9.66
2023-04-25T13:25:38.598Z,9.88
2023-04-25T13:27:45.426Z,10.08
2023-04-25T13:29:52.926Z,10.56
2023-04-25T13:31:57.868Z,10.90
2023-04-25T13:34:02.789Z,11.13
2023-04-25T13:36:08.077Z,10.69
2023-04-25T13:38:13.749Z,10.66
2023-04-25T13:40:22.878Z,10.99
2023-04-25T13:42:29.760Z,10.26
2023-04-25T13:44:34.672Z,9.47
2023-04-25T13:46:47.052Z,9.19
2023-04-25T13:48:57.719Z,9.27
2023-04-25T13:51:05.234Z,9.68
2023-04-25T13:53:10.079Z,9.97
2023-04-25T13:55:15.190Z,9.84
2023-04-25T13:57:20.415Z,10.09
2023-04-25T13:59:27.982Z,9.96
2023-04-25T14:01:35.561Z,10.08
2023-04-25T14:03:43.794Z,10.19
2023-04-25T14:05:50.193Z,9.63
2023-04-25T14:07:55.231Z,10.23
2023-04-25T14:10:00.853Z,10.23
2023-04-25T14:12:06.067Z,9.99
2023-04-25T14:14:11.105Z,10.78
2023-04-25T14:16:16.283Z,10.35
2023-04-25T14:18:22.125Z,10.63
2023-04-25T14:20:29.609Z,10.03
2023-04-25T14:22:34.480Z,10.23
2023-04-25T14:24:40.356Z,10.23
2023-04-25T14:26:45.617Z,10.36
2023-04-25T14:28:50.390Z,9.97
2023-04-25T14:30:55.297Z,10.28
2023-04-25T14:33:00.238Z,10.08
2023-04-25T14:35:05.372Z,9.96
2023-04-25T14:39:32.129Z,10.61
2023-04-25T14:41:37.116Z,10.48
2023-04-25T14:43:43.785Z,10.93
2023-04-25T14:45:51.409Z,10.60
2023-04-25T14:47:57.286Z,10.33
2023-04-25T14:50:03.120Z,10.41
2023-04-25T14:52:08.763Z,10.37
2023-04-25T14:54:18.085Z,10.45
2023-04-25T14:56:23.110Z,10.32
2023-04-25T14:58:28.312Z,10.74
2023-04-25T15:00:34.308Z,9.99
2023-04-25T15:02:40.378Z,9.77
2023-04-25T15:04:45.725Z,9.20
2023-04-25T15:06:50.702Z,8.77
2023-04-25T15:08:55.554Z,8.69
2023-04-25T15:11:03.989Z,8.54
2023-04-25T15:13:09.844Z,8.58
2023-04-25T15:15:22.615Z,8.50
2023-04-25T15:17:32.294Z,8.65
2023-04-25T15:19:38.649Z,8.98
2023-04-25T15:21:43.963Z,8.98
2023-04-25T15:23:49.641Z,9.13
2023-04-25T15:25:55.680Z,8.69
2023-04-25T15:28:04.195Z,8.61
2023-04-25T15:30:16.408Z,8.70
2023-04-25T15:32:24.553Z,8.89
2023-04-25T15:34:29.504Z,8.73
2023-04-25T15:36:34.485Z,9.07
2023-04-25T15:38:39.635Z,9.67
2023-04-25T15:40:44.809Z,9.74
2023-04-25T15:42:52.574Z,9.23
2023-04-25T15:45:00.202Z,8.78
2023-04-25T15:47:05.148Z,8.93
2023-04-25T15:49:10.215Z,8.86
2023-04-25T15:51:15.193Z,9.30
2023-04-25T15:53:20.184Z,9.33
2023-04-25T15:55:28.880Z,9.61
2023-04-25T15:57:34.022Z,9.05
2023-04-25T15:59:38.806Z,8.98
2023-04-25T16:01:46.467Z,9.13
2023-04-25T16:03:54.923Z,8.83
2023-04-25T16:06:00.058Z,8.69
2023-04-25T16:08:05.698Z,8.72
2023-04-25T16:10:13.744Z,8.54
2023-04-25T16:12:21.794Z,8.59
2023-04-25T16:14:26.931Z,8.30
2023-04-25T16:16:34.908Z,8.35
2023-04-25T16:18:43.624Z,8.34
2023-04-25T16:20:49.667Z,8.24
2023-04-25T16:22:54.560Z,8.22
2023-04-25T16:24:59.689Z,8.27
2023-04-25T16:27:04.752Z,8.48
2023-04-25T16:29:10.580Z,8.65
2023-04-25T16:31:16.860Z,8.94
2023-04-25T16:33:23.418Z,8.69
2023-04-25T16:35:32.753Z,8.66
2023-04-25T16:37:38.169Z,8.63
2023-04-25T16:39:43.598Z,8.61
2023-04-25T16:41:49.469Z,8.48
2023-04-25T16:43:54.804Z,8.55
2023-04-25T16:45:59.860Z,8.32
2023-04-25T16:48:04.829Z,8.24
2023-04-25T16:50:13.634Z,8.34
2023-04-25T16:52:24.058Z,8.23
2023-04-25T16:54:30.095Z,8.34
2023-04-25T16:56:35.481Z,8.22
2023-04-25T16:58:44.326Z,8.18
2023-04-25T17:00:50.168Z,8.29
2023-04-25T17:02:55.562Z,8.31
2023-04-25T17:05:02.182Z,8.11
2023-04-25T17:07:07.475Z,8.05
2023-04-25T17:09:19.026Z,8.03
2023-04-25T17:11:24.406Z,7.93
2023-04-25T17:13:31.849Z,7.76
2023-04-25T17:15:38.079Z,7.64
2023-04-25T17:17:43.855Z,7.59
2023-04-25T17:19:50.393Z,7.57
2023-04-25T17:21:55.440Z,7.58
2023-04-25T17:24:01.136Z,7.46
2023-04-25T17:26:09.942Z,7.49
2023-04-25T17:28:15.843Z,7.60
2023-04-25T17:30:23.943Z,7.33
2023-04-25T17:32:30.603Z,7.24
2023-04-25T17:34:37.887Z,7.16
2023-04-25T17:36:44.035Z,7.23
2023-04-25T17:38:52.918Z,7.20
2023-04-25T17:40:58.836Z,7.17
2023-04-25T17:43:06.601Z,7.14
2023-04-25T17:45:13.595Z,7.12
2023-04-25T17:47:19.494Z,7.06
2023-04-25T17:49:24.577Z,7.13
2023-04-25T17:51:29.589Z,7.04
2023-04-25T17:53:34.411Z,7.05
2023-04-25T17:55:41.948Z,7.10
2023-04-25T17:57:49.285Z,7.03
2023-04-25T17:59:59.134Z,6.94
2023-04-25T18:02:04.248Z,6.96
2023-04-25T18:04:09.936Z,6.91
2023-04-25T18:06:16.034Z,6.84
2023-04-25T18:08:22.460Z,6.83
2023-04-25T18:10:27.439Z,6.76
2023-04-25T18:12:33.580Z,6.81
2023-04-25T18:14:38.583Z,6.86
2023-04-25T18:16:49.848Z,6.82
2023-04-25T18:18:55.844Z,6.74
2023-04-25T18:21:01.385Z,6.67
2023-04-25T18:23:06.948Z,6.67
2023-04-25T18:25:14.495Z,6.63
2023-04-25T18:27:26.809Z,6.57
2023-04-25T18:29:33.913Z,6.53
2023-04-25T18:31:39.800Z,6.52
2023-04-25T18:33:49.477Z,6.45
2023-04-25T18:35:59.420Z,6.44
2023-04-25T18:38:05.117Z,6.47
2023-04-25T18:40:14.247Z,6.39
2023-04-25T18:42:19.773Z,6.36
2023-04-25T18:44:24.584Z,6.38
2023-04-25T18:46:29.996Z,6.31
2023-04-25T18:48:35.245Z,6.26
2023-04-25T18:50:44.995Z,6.23
2023-04-25T18:52:50.002Z,6.24
2023-04-25T18:54:55.472Z,6.21
2023-04-25T18:57:01.392Z,6.24
2023-04-25T18:59:06.964Z,6.22
2023-04-25T19:01:11.907Z,6.23
2023-04-25T19:03:17.607Z,6.19
2023-04-25T19:05:23.685Z,6.15
2023-04-25T19:07:32.592Z,6.13
2023-04-25T19:09:37.936Z,6.11
2023-04-25T19:11:43.196Z,6.08
2023-04-25T19:13:51.209Z,6.05
2023-04-25T19:15:57.923Z,6.00
2023-04-25T19:18:03.065Z,5.99
2023-04-25T19:20:09.921Z,5.97
2023-04-25T19:22:14.858Z,5.93
2023-04-25T19:24:22.882Z,5.88
2023-04-25T19:26:27.945Z,5.88
2023-04-25T19:28:33.063Z,5.82
2023-04-25T19:30:38.184Z,5.78
2023-04-25T19:32:43.161Z,5.76
2023-04-25T19:34:48.594Z,5.76
2023-04-25T19:36:55.908Z,5.70
2023-04-25T19:39:03.196Z,5.68
2023-04-25T19:41:10.705Z,5.64
2023-04-25T19:43:16.838Z,5.61
2023-04-25T19:45:24.635Z,5.59
2023-04-25T19:47:30.155Z,5.53
2023-04-25T19:49:35.172Z,5.48
2023-04-25T19:51:43.240Z,5.43
2023-04-25T19:53:48.986Z,5.41
2023-04-25T19:55:54.663Z,5.37
2023-04-25T19:58:03.553Z,5.38
2023-04-25T20:00:12.271Z,5.39
2023-04-25T20:02:21.749Z,5.36
2023-04-25T20:04:26.760Z,5.34
2023-04-25T20:06:32.969Z,5.32
2023-04-25T20:08:38.684Z,5.28
2023-04-25T20:10:43.656Z,5.25
2023-04-25T20:12:49.320Z,5.23
2023-04-25T20:14:58.709Z,5.19
2023-04-25T20:17:04.744Z,5.16
2023-04-25T20:19:09.709Z,5.11
2023-04-25T20:21:14.814Z,5.11
2023-04-25T20:23:20.047Z,5.02
2023-04-25T20:25:25.502Z,4.99
2023-04-25T20:27:31.013Z,4.96
2023-04-25T20:29:36.650Z,4.95
2023-04-25T20:31:44.347Z,4.92
2023-04-25T20:33:53.603Z,4.86
2023-04-25T20:35:58.755Z,4.80
2023-04-25T20:38:03.671Z,4.76
2023-04-25T20:40:12.093Z,4.75
2023-04-25T20:42:16.945Z,4.72
2023-04-25T20:44:23.928Z,4.69
2023-04-25T20:46:31.909Z,4.65
2023-04-25T20:48:39.278Z,4.60
2023-04-25T20:50:44.276Z,4.56
2023-04-25T20:52:49.895Z,4.52
2023-04-25T20:54:55.222Z,4.50
2023-04-25T20:57:00.505Z,4.47
2023-04-25T20:59:07.919Z,4.45
2023-04-25T21:01:12.888Z,4.41
2023-04-25T21:03:21.429Z,4.37
2023-04-25T21:05:29.190Z,4.39
2023-04-25T21:07:34.068Z,4.36
2023-04-25T21:09:38.914Z,4.37
2023-04-25T21:11:46.025Z,4.38
2023-04-25T21:13:52.744Z,4.38
2023-04-25T21:15:57.687Z,4.36
2023-04-25T21:18:02.631Z,4.38
2023-04-25T21:20:11.023Z,4.44
2023-04-25T21:22:18.751Z,4.50
2023-04-25T21:24:27.531Z,4.57
2023-04-25T21:26:32.289Z,4.75
2023-04-25T21:28:37.159Z,4.83
2023-04-25T21:30:42.698Z,4.89
2023-04-25T21:32:51.973Z,4.90
2023-04-25T21:34:57.076Z,4.93
2023-04-25T21:37:01.995Z,4.94
2023-04-25T21:39:11.018Z,5.02
2023-04-25T21:41:15.937Z,5.12
2023-04-25T21:43:24.652Z,5.18
2023-04-25T21:45:29.788Z,5.22
2023-04-25T21:48:00.285Z,5.28
2023-04-25T21:50:15.482Z,5.30
2023-04-25T21:52:21.766Z,5.32
2023-04-25T21:54:37.100Z,5.36
2023-04-25T21:56:42.913Z,5.36
2023-04-25T21:58:48.914Z,5.32
2023-04-25T22:00:53.952Z,5.32
2023-04-25T22:03:00.450Z,5.27
2023-04-25T22:05:05.608Z,5.25
2023-04-25T22:07:10.466Z,5.11
2023-04-25T22:09:16.549Z,5.07
2023-04-25T22:11:26.884Z,5.04
2023-04-25T22:13:33.705Z,5.02
2023-04-25T22:15:42.198Z,4.96
2023-04-25T22:20:14.410Z,4.83
2023-04-25T22:22:28.868Z,4.78
2023-04-25T22:24:38.650Z,4.69
2023-04-25T22:27:01.930Z,4.65
2023-04-25T22:29:20.920Z,4.66
2023-04-25T22:31:31.257Z,4.64
2023-04-25T22:33:38.848Z,4.60
2023-04-25T22:35:47.691Z,4.57
2023-04-25T22:37:57.151Z,4.53
2023-04-25T22:40:10.584Z,4.54
2023-04-25T22:42:31.627Z,4.51
2023-04-25T22:44:42.498Z,4.48
2023-04-25T22:46:58.922Z,4.51
2023-04-25T22:49:11.414Z,4.53
2023-04-25T22:51:33.329Z,4.55
2023-04-25T22:53:53.511Z,4.60
2023-04-25T22:56:03.876Z,4.58
2023-04-25T22:58:25.401Z,4.62
2023-04-25T23:00:36.683Z,4.65
2023-04-25T23:02:50.411Z,4.69
2023-04-25T23:05:00.394Z,4.72
2023-04-25T23:07:13.868Z,4.74
2023-04-25T23:09:20.761Z,4.71
2023-04-25T23:11:27.139Z,4.71
2023-04-25T23:13:41.602Z,4.67
2023-04-25T23:15:58.402Z,4.64
2023-04-25T23:18:09.477Z,4.58
2023-04-25T23:20:22.671Z,4.53
2023-04-25T23:22:27.556Z,4.50
2023-04-25T23:24:43.900Z,4.44
2023-04-25T23:26:59.748Z,4.43
2023-04-25T23:29:12.754Z,4.44
2023-04-25T23:31:32.547Z,4.45
2023-04-25T23:33:41.489Z,4.46
2023-04-25T23:35:54.096Z,4.48
2023-04-25T23:38:06.608Z,4.47
2023-04-25T23:40:20.271Z,4.47
2023-04-25T23:42:34.584Z,4.62
2023-04-25T23:44:55.426Z,4.73
2023-04-25T23:47:02.306Z,4.72
2023-04-25T23:49:12.888Z,4.81
2023-04-25T23:51:21.727Z,4.75
2023-04-25T23:53:29.552Z,4.70
2023-04-25T23:55:39.385Z,4.65
2023-04-25T23:57:49.208Z,4.59
